createdAt,value
2022-08-25T00:01:52.093Z,99461.81
2022-08-25T00:04:39.365Z,99450.63
2022-08-25T00:07:29.423Z,99457.59
2022-08-25T00:10:16.857Z,99458.56
2022-08-25T00:13:06.853Z,99456.78
2022-08-25T00:15:54.061Z,99459.38
2022-08-25T00:18:45.112Z,99454.34
2022-08-25T00:21:33.447Z,99457.75
2022-08-25T00:24:23.199Z,99456.94
2022-08-25T00:27:12.645Z,99452.56
2022-08-25T00:30:00.311Z,99445.75
2022-08-25T00:32:55.096Z,99445.75
2022-08-25T00:35:45.175Z,99450.13
2022-08-25T00:38:32.574Z,99442.31
2022-08-25T00:41:25.803Z,99441.53
2022-08-25T00:44:17.470Z,99440.81
2022-08-25T00:47:07.475Z,99434.03
2022-08-25T00:49:58.904Z,99445.22
2022-08-25T00:52:51.318Z,99441.81
2022-08-25T00:55:41.058Z,99435.00
2022-08-25T00:58:32.824Z,99439.22
2022-08-25T01:01:20.400Z,99435.00
2022-08-25T01:04:08.380Z,99429.00
2022-08-25T01:06:57.676Z,99433.22
2022-08-25T01:09:47.805Z,99429.81
2022-08-25T01:12:35.067Z,99437.59
2022-08-25T01:15:24.916Z,99441.00
2022-08-25T01:18:12.116Z,99450.41
2022-08-25T01:21:01.421Z,99446.03
2022-08-25T01:23:50.319Z,99443.44
2022-08-25T01:26:38.092Z,99448.63
2022-08-25T01:29:26.407Z,99447.81
2022-08-25T01:32:15.790Z,99441.66
2022-08-25T01:35:03.099Z,99440.81
2022-08-25T01:37:51.822Z,99437.44
2022-08-25T01:40:40.968Z,99439.06
2022-08-25T01:43:38.101Z,99437.44
2022-08-25T01:46:25.407Z,99441.00
2022-08-25T01:49:13.026Z,99440.03
2022-08-25T01:52:06.798Z,99443.44
2022-08-25T01:54:55.310Z,99441.00
2022-08-25T01:57:42.410Z,99435.63
2022-08-25T02:00:29.881Z,99436.47
2022-08-25T02:03:19.915Z,99446.03
2022-08-25T02:06:08.846Z,99433.88
2022-08-25T02:09:01.126Z,99437.31
2022-08-25T02:11:50.014Z,99437.31
2022-08-25T02:14:37.939Z,99438.13
2022-08-25T02:17:25.418Z,99432.09
2022-08-25T02:20:13.039Z,99438.22
2022-08-25T02:23:00.465Z,99435.63
2022-08-25T02:25:47.489Z,99435.81
2022-08-25T02:28:37.155Z,99436.63
2022-08-25T02:31:27.031Z,99430.59
2022-08-25T02:34:15.247Z,99426.41
2022-08-25T02:37:02.552Z,99430.78
2022-08-25T02:39:50.279Z,99429.97
2022-08-25T02:42:37.520Z,99423.94
2022-08-25T02:45:26.029Z,99430.94
2022-08-25T02:48:13.603Z,99424.94
2022-08-25T02:51:02.586Z,99422.53
2022-08-25T02:53:49.986Z,99427.84
2022-08-25T02:56:37.504Z,99419.25
2022-08-25T02:59:24.888Z,99411.47
2022-08-25T03:02:13.569Z,99421.06
2022-08-25T03:05:00.830Z,99421.84
2022-08-25T03:07:48.281Z,99419.44
2022-08-25T03:10:36.658Z,99417.78
2022-08-25T03:13:24.000Z,99420.56
2022-08-25T03:16:12.343Z,99413.72
2022-08-25T03:19:02.163Z,99419.25
2022-08-25T03:21:52.439Z,99423.66
2022-08-25T03:24:39.512Z,99410.00
2022-08-25T03:27:25.919Z,99420.38
2022-08-25T03:30:14.364Z,99410.97
2022-08-25T03:33:01.618Z,99414.56
2022-08-25T03:35:50.184Z,99411.13
2022-08-25T03:38:38.444Z,99420.72
2022-08-25T03:41:29.679Z,99423.50
2022-08-25T03:44:19.286Z,99425.41
2022-08-25T03:47:07.710Z,99418.59
2022-08-25T03:49:54.807Z,99425.56
2022-08-25T03:52:43.716Z,99424.78
2022-08-25T03:55:31.236Z,99427.50
2022-08-25T03:58:20.415Z,99421.53
2022-08-25T04:01:07.778Z,99417.28
2022-08-25T04:03:55.511Z,99408.88
2022-08-25T04:06:44.343Z,99403.69
2022-08-25T04:09:36.757Z,99393.63
2022-08-25T04:12:24.920Z,99398.97
2022-08-25T04:15:12.880Z,99410.34
2022-08-25T04:18:00.348Z,99419.09
2022-08-25T04:20:48.441Z,99403.69
2022-08-25T04:23:35.796Z,99409.03
2022-08-25T04:26:27.187Z,99403.97
2022-08-25T04:29:17.370Z,99398.16
2022-08-25T04:32:05.413Z,99406.91
2022-08-25T04:34:53.107Z,99407.84
2022-08-25T04:37:40.659Z,99402.84
2022-08-25T04:40:29.090Z,99409.97
2022-08-25T04:43:18.128Z,99412.56
2022-08-25T04:46:08.416Z,99417.09
2022-08-25T04:48:58.300Z,99432.66
2022-08-25T04:51:46.996Z,99435.25
2022-08-25T04:54:37.026Z,99437.84
2022-08-25T04:57:24.771Z,99431.06
2022-08-25T05:00:15.413Z,99426.84
2022-08-25T05:03:02.842Z,99421.94
2022-08-25T05:05:53.388Z,99419.50
2022-08-25T05:08:40.798Z,99420.50
2022-08-25T05:11:28.333Z,99414.50
2022-08-25T05:14:18.270Z,99416.28
2022-08-25T05:17:07.114Z,99423.25
2022-08-25T05:19:54.151Z,99418.88
2022-08-25T05:22:42.672Z,99415.47
2022-08-25T05:25:30.000Z,99417.91
2022-08-25T05:28:17.938Z,99416.13
2022-08-25T05:31:06.498Z,99401.19
2022-08-25T05:33:57.544Z,99400.91
2022-08-25T05:36:44.610Z,99412.91
2022-08-25T05:39:33.885Z,99403.16
2022-08-25T05:42:22.514Z,99394.41
2022-08-25T05:45:14.337Z,99403.66
2022-08-25T05:48:07.718Z,99387.94
2022-08-25T05:50:59.908Z,99389.56
2022-08-25T05:53:50.069Z,99391.81
2022-08-25T05:56:37.701Z,99392.47
2022-08-25T05:59:25.074Z,99391.34
2022-08-25T06:02:30.605Z,99385.19
2022-08-25T06:05:21.707Z,99388.44
2022-08-25T06:08:11.077Z,99386.31
2022-08-25T06:10:58.314Z,99397.34
2022-08-25T06:13:46.020Z,99391.03
2022-08-25T06:16:33.249Z,99396.69
2022-08-25T06:19:21.267Z,99391.19
2022-08-25T06:22:08.782Z,99385.69
2022-08-25T06:24:57.604Z,99394.09
2022-08-25T06:27:44.927Z,99392.81
2022-08-25T06:30:32.127Z,99394.25
2022-08-25T06:33:19.596Z,99394.75
2022-08-25T06:36:07.699Z,99391.81
2022-08-25T06:38:54.948Z,99406.28
2022-08-25T06:41:43.948Z,99391.22
2022-08-25T06:44:31.382Z,99392.69
2022-08-25T06:47:19.313Z,99390.56
2022-08-25T06:50:07.471Z,99386.81
2022-08-25T06:52:54.683Z,99373.66
2022-08-25T06:55:41.997Z,99393.31
2022-08-25T06:58:30.471Z,99379.19
2022-08-25T07:01:22.225Z,99379.84
2022-08-25T07:04:12.885Z,99378.66
2022-08-25T07:07:00.821Z,99380.13
2022-08-25T07:09:48.342Z,99382.41
2022-08-25T07:12:35.844Z,99370.91
2022-08-25T07:15:24.534Z,99368.91
2022-08-25T07:18:12.886Z,99371.34
2022-08-25T07:21:00.831Z,99375.56
2022-08-25T07:23:48.714Z,99365.00
2022-08-25T07:26:38.622Z,99358.69
2022-08-25T07:29:31.907Z,99367.94
2022-08-25T07:32:21.485Z,99362.56
2022-08-25T07:35:19.573Z,99369.38
2022-08-25T07:38:10.251Z,99361.25
2022-08-25T07:41:04.052Z,99366.09
2022-08-25T07:43:51.332Z,99371.00
2022-08-25T07:46:39.134Z,99368.03
2022-08-25T07:49:35.733Z,99360.75
2022-08-25T07:52:26.823Z,99362.16
2022-08-25T07:55:17.999Z,99360.84
2022-08-25T07:58:08.205Z,99361.53
2022-08-25T08:00:55.540Z,99376.63
2022-08-25T08:03:50.586Z,99367.66
2022-08-25T08:06:41.666Z,99366.53
2022-08-25T08:09:31.348Z,99365.38
2022-08-25T08:12:19.120Z,99364.41
2022-08-25T08:15:10.168Z,99357.22
2022-08-25T08:17:58.095Z,99363.72
2022-08-25T08:20:47.104Z,99368.59
2022-08-25T08:23:35.608Z,99363.69
2022-08-25T08:26:36.338Z,99370.16
2022-08-25T08:29:30.869Z,99360.41
2022-08-25T08:32:19.033Z,99362.66
2022-08-25T08:35:08.053Z,99362.16
2022-08-25T08:37:55.486Z,99360.00
2022-08-25T08:41:12.945Z,99358.69
2022-08-25T08:44:08.909Z,99360.13
2022-08-25T08:47:09.071Z,99349.56
2022-08-25T08:50:05.056Z,99354.44
2022-08-25T08:53:02.088Z,99348.88
2022-08-25T08:55:56.165Z,99344.94
2022-08-25T08:58:49.881Z,99343.81
2022-08-25T09:01:47.834Z,99340.06
2022-08-25T09:04:46.957Z,99341.53
2022-08-25T09:07:42.193Z,99334.34
2022-08-25T09:10:43.209Z,99342.63
2022-08-25T09:13:46.282Z,99340.63
2022-08-25T09:16:58.864Z,99336.88
2022-08-25T09:20:18.790Z,99332.16
2022-08-25T09:23:22.518Z,99324.16
2022-08-25T09:26:30.064Z,99323.81
2022-08-25T09:29:25.383Z,99316.28
2022-08-25T09:32:12.930Z,99317.03
2022-08-25T09:35:04.373Z,99314.38
2022-08-25T09:38:00.024Z,99307.81
2022-08-25T09:40:50.330Z,99313.03
2022-08-25T09:43:43.157Z,99311.22
2022-08-25T09:46:31.857Z,99300.34
2022-08-25T09:49:18.918Z,99293.34
2022-08-25T09:52:33.145Z,99294.78
2022-08-25T09:55:32.414Z,99285.63
2022-08-25T09:58:24.154Z,99280.88
2022-08-25T10:01:17.958Z,99290.78
2022-08-25T10:04:13.931Z,99279.97
2022-08-25T10:07:25.506Z,99272.00
2022-08-25T10:10:24.889Z,99272.81
2022-08-25T10:13:16.294Z,99271.03
2022-08-25T10:16:25.229Z,99264.94
2022-08-25T10:19:25.258Z,99263.22
2022-08-25T10:22:25.020Z,99258.69
2022-08-25T10:25:16.214Z,99253.81
2022-08-25T10:28:15.093Z,99246.06
2022-08-25T10:31:14.344Z,99239.50
2022-08-25T10:34:19.892Z,99241.59
2022-08-25T10:37:19.280Z,99243.47
2022-08-25T10:40:22.919Z,99242.84
2022-08-25T10:43:23.804Z,99238.44
2022-08-25T10:46:24.490Z,99232.00
2022-08-25T10:49:21.383Z,99230.63
2022-08-25T10:52:16.679Z,99232.59
2022-08-25T10:55:15.050Z,99221.91
2022-08-25T10:58:14.914Z,99221.50
2022-08-25T11:01:17.361Z,99221.44
2022-08-25T11:04:11.785Z,99219.56
2022-08-25T11:07:05.832Z,99221.09
2022-08-25T11:10:01.793Z,99217.63
2022-08-25T11:12:57.599Z,99217.56
2022-08-25T11:16:15.863Z,99208.69
2022-08-25T11:19:10.859Z,99219.84
2022-08-25T11:22:08.540Z,99206.38
2022-08-25T11:25:11.269Z,99201.72
2022-08-25T11:28:05.390Z,99198.84
2022-08-25T11:30:54.458Z,99198.41
2022-08-25T11:33:42.011Z,99191.59
2022-08-25T11:36:33.464Z,99198.78
2022-08-25T11:39:41.247Z,99192.16
2022-08-25T11:42:44.176Z,99192.34
2022-08-25T11:45:56.371Z,99189.91
2022-08-25T11:48:57.380Z,99192.34
2022-08-25T11:51:48.727Z,99193.75
2022-08-25T11:54:44.696Z,99195.38
2022-08-25T11:57:33.488Z,99188.34
2022-08-25T12:00:40.961Z,99190.16
2022-08-25T12:03:54.063Z,99184.97
2022-08-25T12:07:27.604Z,99184.31
2022-08-25T12:10:20.978Z,99173.69
2022-08-25T12:13:42.997Z,99179.09
2022-08-25T12:17:00.426Z,99173.88
2022-08-25T12:19:58.975Z,99172.66
2022-08-25T12:23:01.029Z,99167.44
2022-08-25T12:25:54.739Z,99153.84
2022-08-25T12:29:01.137Z,99154.47
2022-08-25T12:32:07.036Z,99153.47
2022-08-25T12:35:29.838Z,99153.47
2022-08-25T12:38:30.114Z,99151.47
2022-08-25T12:41:24.347Z,99150.28
2022-08-25T12:44:41.572Z,99147.69
2022-08-25T12:47:33.868Z,99152.31
2022-08-25T12:50:40.516Z,99144.47
2022-08-25T12:53:37.395Z,99146.09
2022-08-25T12:56:35.088Z,99143.09
2022-08-25T12:59:37.104Z,99129.09
2022-08-25T13:03:00.249Z,99139.13
2022-08-25T13:06:48.405Z,99137.50
2022-08-25T13:10:18.126Z,99128.88
2022-08-25T13:13:12.801Z,99124.09
2022-08-25T13:16:03.619Z,99124.72
2022-08-25T13:18:51.887Z,99114.28
2022-08-25T13:21:41.672Z,99115.91
2022-08-25T13:24:31.930Z,99109.66
2022-08-25T13:27:29.789Z,99110.31
2022-08-25T13:30:27.639Z,99106.31
2022-08-25T13:33:21.837Z,99104.94
2022-08-25T13:36:35.695Z,99111.59
2022-08-25T13:39:52.710Z,99092.34
2022-08-25T13:42:33.420Z,99099.00
2022-08-25T13:45:24.607Z,99090.38
2022-08-25T13:48:13.793Z,99089.41
2022-08-25T13:51:21.524Z,99090.00
2022-08-25T13:54:21.010Z,99084.19
2022-08-25T13:57:18.428Z,99087.59
2022-08-25T14:00:10.384Z,99083.38
2022-08-25T14:02:59.911Z,99074.34
2022-08-25T14:05:47.557Z,99079.19
2022-08-25T14:08:38.521Z,99071.97
2022-08-25T14:11:33.390Z,99077.81
2022-08-25T14:14:36.149Z,99082.06
2022-08-25T14:17:39.064Z,99075.03
2022-08-25T14:20:31.330Z,99067.38
2022-08-25T14:23:24.193Z,99068.38
2022-08-25T14:26:11.982Z,99063.53
2022-08-25T14:28:59.242Z,99060.31
2022-08-25T14:31:47.794Z,99053.47
2022-08-25T14:34:38.420Z,99062.31
2022-08-25T14:37:32.434Z,99050.25
2022-08-25T14:40:20.140Z,99049.63
2022-08-25T14:43:09.688Z,99043.81
2022-08-25T14:45:57.448Z,99045.78
2022-08-25T14:48:48.948Z,99034.75
2022-08-25T14:51:37.507Z,99036.72
2022-08-25T14:54:28.963Z,99037.75
2022-08-25T14:57:16.437Z,99030.09
2022-08-25T15:00:05.435Z,99027.13
2022-08-25T15:02:57.543Z,99016.91
2022-08-25T15:05:45.566Z,99024.97
2022-08-25T15:08:49.994Z,99010.34
2022-08-25T15:11:41.809Z,99014.84
2022-08-25T15:14:33.435Z,99006.59
2022-08-25T15:17:20.693Z,99017.47
2022-08-25T15:20:09.422Z,99012.84
2022-08-25T15:22:58.743Z,99013.47
2022-08-25T15:25:49.033Z,99018.69
2022-08-25T15:28:44.706Z,99015.09
2022-08-25T15:31:31.929Z,99013.69
2022-08-25T15:34:20.490Z,99011.06
2022-08-25T15:37:10.938Z,99011.66
2022-08-25T15:39:58.328Z,99017.91
2022-08-25T15:42:45.835Z,99013.47
2022-08-25T15:45:36.263Z,99006.44
2022-08-25T15:48:23.367Z,99013.47
2022-08-25T15:51:12.301Z,99002.41
2022-08-25T15:54:00.215Z,99005.03
2022-08-25T15:56:48.077Z,99006.25
2022-08-25T15:59:35.383Z,98997.59
2022-08-25T16:02:24.647Z,99001.38
2022-08-25T16:05:12.359Z,98999.78
2022-08-25T16:08:00.747Z,98996.56
2022-08-25T16:10:49.869Z,99006.38
2022-08-25T16:13:36.851Z,99004.75
2022-08-25T16:16:32.407Z,98999.72
2022-08-25T16:19:20.979Z,98997.28
2022-08-25T16:22:08.933Z,99000.09
2022-08-25T16:24:58.458Z,98992.66
2022-08-25T16:27:46.593Z,98991.25
2022-08-25T16:30:33.623Z,98987.41
2022-08-25T16:33:22.782Z,98974.34
2022-08-25T16:36:14.553Z,98975.53
2022-08-25T16:39:02.056Z,98972.34
2022-08-25T16:41:49.559Z,98968.31
2022-08-25T16:44:39.916Z,98968.69
2022-08-25T16:47:27.858Z,98973.94
2022-08-25T16:50:17.017Z,98967.47
2022-08-25T16:53:23.969Z,98971.50
2022-08-25T16:56:11.647Z,98977.75
2022-08-25T16:59:00.633Z,98974.13
2022-08-25T17:01:48.147Z,98978.34
2022-08-25T17:04:35.672Z,98979.97
2022-08-25T17:07:24.738Z,98973.75
2022-08-25T17:10:13.583Z,98980.38
2022-08-25T17:13:00.605Z,98971.34
2022-08-25T17:15:52.417Z,98966.97
2022-08-25T17:18:40.620Z,98971.97
2022-08-25T17:21:32.457Z,98977.78
2022-08-25T17:24:20.208Z,98973.41
2022-08-25T17:27:09.737Z,98973.41
2022-08-25T17:29:58.084Z,98981.44
2022-08-25T17:32:45.701Z,98984.41
2022-08-25T17:35:41.390Z,98973.75
2022-08-25T17:38:30.232Z,98976.72
2022-08-25T17:41:20.743Z,98978.75
2022-08-25T17:44:09.362Z,98971.91
2022-08-25T17:46:57.398Z,98975.50
2022-08-25T17:49:44.363Z,98974.53
2022-08-25T17:52:31.811Z,98989.56
2022-08-25T17:55:21.839Z,98984.72
2022-08-25T17:58:09.894Z,98984.13
2022-08-25T18:01:00.519Z,98988.09
2022-08-25T18:03:47.665Z,98986.47
2022-08-25T18:06:35.168Z,98986.06
2022-08-25T18:09:22.673Z,98985.44
2022-08-25T18:12:09.836Z,98992.66
2022-08-25T18:14:59.163Z,98993.84
2022-08-25T18:17:48.312Z,98985.41
2022-08-25T18:20:36.267Z,98991.00
2022-08-25T18:23:25.295Z,98999.81
2022-08-25T18:26:14.035Z,98996.78
2022-08-25T18:29:01.611Z,99004.78
2022-08-25T18:31:49.051Z,99007.78
2022-08-25T18:34:38.501Z,99003.75
2022-08-25T18:37:43.425Z,99004.91
2022-08-25T18:40:33.003Z,99008.88
2022-08-25T18:43:21.404Z,99011.88
2022-08-25T18:46:09.985Z,99008.63
2022-08-25T18:48:57.125Z,99008.03
2022-08-25T18:51:46.169Z,99001.41
2022-08-25T18:54:33.475Z,99008.78
2022-08-25T18:57:23.555Z,99014.38
2022-08-25T19:00:15.874Z,99016.34
2022-08-25T19:03:03.224Z,99017.34
2022-08-25T19:05:53.952Z,99027.16
2022-08-25T19:08:46.527Z,99016.47
2022-08-25T19:11:34.459Z,99000.22
2022-08-25T19:14:21.482Z,99013.44
2022-08-25T19:17:09.749Z,99016.22
2022-08-25T19:19:58.698Z,99012.22
2022-08-25T19:22:45.907Z,99005.56
2022-08-25T19:25:34.684Z,99014.56
2022-08-25T19:28:22.085Z,99014.75
2022-08-25T19:31:09.925Z,99019.31
2022-08-25T19:33:58.756Z,99014.50
2022-08-25T19:36:46.941Z,99023.28
2022-08-25T19:39:39.129Z,99014.03
2022-08-25T19:42:35.085Z,99023.84
2022-08-25T19:45:25.335Z,99022.44
2022-08-25T19:48:14.041Z,99021.59
2022-08-25T19:51:01.682Z,99025.38
2022-08-25T19:53:53.619Z,99024.75
2022-08-25T19:56:54.825Z,99025.13
2022-08-25T19:59:47.309Z,99018.28
2022-08-25T20:02:36.764Z,99025.66
2022-08-25T20:05:24.880Z,99024.84
2022-08-25T20:08:12.409Z,99028.44
2022-08-25T20:10:59.941Z,99042.63
2022-08-25T20:13:47.051Z,99036.81
2022-08-25T20:16:38.655Z,99038.78
2022-08-25T20:19:25.863Z,99036.38
2022-08-25T20:22:17.757Z,99040.78
2022-08-25T20:25:13.377Z,99040.53
2022-08-25T20:28:01.646Z,99048.50
2022-08-25T20:30:49.162Z,99042.66
2022-08-25T20:33:38.018Z,99039.47
2022-08-25T20:36:27.352Z,99043.22
2022-08-25T20:39:14.759Z,99040.81
2022-08-25T20:42:02.640Z,99046.34
2022-08-25T20:44:50.210Z,99038.75
2022-08-25T20:47:37.797Z,99041.53
2022-08-25T20:50:27.445Z,99046.13
2022-08-25T20:53:15.327Z,99042.09
2022-08-25T20:56:03.019Z,99037.06
2022-08-25T20:58:50.259Z,99039.81
2022-08-25T21:01:42.327Z,99040.00
2022-08-25T21:04:31.536Z,99038.56
2022-08-25T21:07:20.245Z,99041.34
2022-08-25T21:10:10.222Z,99043.34
2022-08-25T21:12:58.239Z,99040.09
2022-08-25T21:15:48.548Z,99045.31
2022-08-25T21:18:37.523Z,99040.47
2022-08-25T21:21:26.157Z,99044.06
2022-08-25T21:24:15.466Z,99046.03
2022-08-25T21:27:03.735Z,99042.78
2022-08-25T21:29:55.028Z,99047.19
2022-08-25T21:32:53.123Z,99052.75
2022-08-25T21:35:42.893Z,99051.13
2022-08-25T21:38:30.425Z,99049.69
2022-08-25T21:41:23.000Z,99043.03
2022-08-25T21:44:11.534Z,99050.25
2022-08-25T21:46:58.668Z,99052.00
2022-08-25T21:49:46.019Z,99039.38
2022-08-25T21:52:33.163Z,99042.94
2022-08-25T21:55:20.743Z,99040.53
2022-08-25T21:58:10.707Z,99044.28
2022-08-25T22:00:57.817Z,99034.88
2022-08-25T22:03:47.087Z,99042.84
2022-08-25T22:06:35.236Z,99041.22
2022-08-25T22:09:22.875Z,99045.81
2022-08-25T22:12:11.108Z,99047.63
2022-08-25T22:14:59.594Z,99048.59
2022-08-25T22:17:48.026Z,99039.19
2022-08-25T22:20:35.815Z,99039.53
2022-08-25T22:23:28.186Z,99035.50
2022-08-25T22:26:16.876Z,99038.28
2022-08-25T22:29:09.507Z,99033.28
2022-08-25T22:32:02.042Z,99035.22
2022-08-25T22:34:49.919Z,99026.81
2022-08-25T22:37:37.237Z,99033.16
2022-08-25T22:40:24.535Z,99033.34
2022-08-25T22:43:11.722Z,99032.53
2022-08-25T22:46:03.122Z,99036.94
2022-08-25T22:48:52.124Z,99037.91
2022-08-25T22:51:39.841Z,99033.69
2022-08-25T22:54:27.221Z,99026.06
2022-08-25T22:57:14.481Z,99042.47
2022-08-25T23:00:01.594Z,99027.03
2022-08-25T23:02:53.207Z,99033.25
2022-08-25T23:05:42.319Z,99034.22
2022-08-25T23:08:39.397Z,99024.81
2022-08-25T23:11:29.058Z,99025.00
2022-08-25T23:14:16.913Z,99024.19
2022-08-25T23:17:07.568Z,99021.59
2022-08-25T23:19:55.090Z,99029.53
2022-08-25T23:22:43.056Z,99026.31
2022-08-25T23:28:17.769Z,99019.03
2022-08-25T23:31:08.642Z,99023.44
2022-08-25T23:33:59.399Z,99018.44
2022-08-25T23:36:49.872Z,99009.94
2022-08-25T23:39:40.788Z,99016.16
2022-08-25T23:42:28.385Z,99018.09
2022-08-25T23:45:15.956Z,99009.50
2022-08-25T23:48:04.483Z,99010.50
2022-08-25T23:50:54.179Z,99008.06
2022-08-25T23:53:41.601Z,99013.28
2022-08-25T23:56:30.963Z,99010.84
2022-08-25T23:59:18.620Z,99014.44
